Time;durP1;ratioP1;P1;durP2;ratioP2;P2;SDS_P1;SDS_P2;PMS_P1;PMS_P2;Temp;Humidity;BMP_temperature;BMP_pressure;BME280_temperature;BME280_humidity;BME280_pressure;Samples;Min_cycle;Max_cycle;Signal;HPM_P1;HPM_P2
2022/06/30 00:00:41;;;;;;;9.70;8.13;;;19.90;79.40;;;;;;5053730;28;20434;-37
2022/06/30 00:03:07;;;;;;;12.43;8.70;;;19.90;79.40;;;;;;5053076;28;20036;-38
2022/06/30 00:05:33;;;;;;;10.18;8.68;;;19.80;79.60;;;;;;5052966;28;20032;-43
2022/06/30 00:07:59;;;;;;;10.73;8.60;;;19.70;79.90;;;;;;5053116;28;20025;-38
2022/06/30 00:10:25;;;;;;;13.40;9.35;;;19.70;80.10;;;;;;5052952;28;20070;-37
2022/06/30 00:12:50;;;;;;;14.15;9.27;;;19.70;80.10;;;;;;5052906;28;20032;-37
2022/06/30 00:15:16;;;;;;;16.00;9.02;;;19.60;80.30;;;;;;5053598;28;20078;-37
2022/06/30 00:17:42;;;;;;;10.23;9.13;;;19.60;80.50;;;;;;5053031;28;20100;-37
2022/06/30 00:20:08;;;;;;;13.48;9.80;;;19.50;80.70;;;;;;5051684;28;20033;-37
2022/06/30 00:22:34;;;;;;;11.30;8.63;;;19.50;80.80;;;;;;5053089;28;20556;-37
2022/06/30 00:25:00;;;;;;;12.98;9.23;;;19.50;80.90;;;;;;5053142;28;20112;-36
2022/06/30 00:27:26;;;;;;;11.60;9.45;;;19.50;80.90;;;;;;5052751;28;20094;-37
2022/06/30 00:29:51;;;;;;;12.40;9.52;;;19.40;80.90;;;;;;5053118;28;20049;-37
2022/06/30 00:32:17;;;;;;;11.85;10.32;;;19.50;80.90;;;;;;5052747;28;20032;-37
2022/06/30 00:34:43;;;;;;;16.75;11.02;;;19.40;80.90;;;;;;5053556;28;20410;-37
2022/06/30 00:37:08;;;;;;;14.13;10.43;;;19.40;80.80;;;;;;5053351;28;20457;-37
2022/06/30 00:39:34;;;;;;;14.20;11.32;;;19.40;80.80;;;;;;5052743;28;20017;-37
2022/06/30 00:42:01;;;;;;;13.48;10.00;;;19.40;80.80;;;;;;5051489;28;20068;-37
2022/06/30 00:44:27;;;;;;;15.38;11.13;;;19.30;80.80;;;;;;5053043;28;20033;-38
2022/06/30 00:46:53;;;;;;;15.20;10.40;;;19.30;80.90;;;;;;5052680;28;20112;-37
2022/06/30 00:49:22;;;;;;;16.23;11.07;;;19.30;80.90;;;;;;5052750;28;20029;-36
2022/06/30 00:51:47;;;;;;;15.07;10.77;;;19.30;81.00;;;;;;5052365;28;20082;-37
2022/06/30 00:54:13;;;;;;;14.57;10.90;;;19.30;81.10;;;;;;5052692;28;20469;-36
2022/06/30 00:56:46;;;;;;;12.63;11.27;;;19.30;81.30;;;;;;5053361;28;20029;-37
2022/06/30 00:59:14;;;;;;;19.23;11.90;;;19.40;80.80;;;;;;5052593;28;20053;-40
2022/06/30 01:01:42;;;;;;;16.35;10.82;;;19.30;80.90;;;;;;5055687;28;20043;-38
2022/06/30 01:04:08;;;;;;;14.27;12.10;;;19.30;81.10;;;;;;5056691;28;20033;-37
2022/06/30 01:06:35;;;;;;;13.50;10.75;;;19.20;81.60;;;;;;5056468;28;20104;-37
2022/06/30 01:09:00;;;;;;;14.25;10.77;;;19.20;81.30;;;;;;5056442;28;20056;-37
2022/06/30 01:14:10;;;;;;;15.43;11.40;;;19.10;81.70;;;;;;5056221;28;20051;-38
2022/06/30 01:16:42;;;;;;;13.90;10.43;;;19.00;82.00;;;;;;5056188;28;20029;-38
2022/06/30 01:19:08;;;;;;;13.75;11.43;;;19.00;82.10;;;;;;5056788;28;20036;-38
2022/06/30 01:21:34;;;;;;;13.85;11.48;;;19.00;81.90;;;;;;5055646;28;20135;-38
2022/06/30 01:24:00;;;;;;;15.25;11.00;;;19.10;82.00;;;;;;5054792;28;20021;-38
2022/06/30 01:26:29;;;;;;;15.95;12.65;;;19.10;81.90;;;;;;5056301;28;20033;-40
2022/06/30 01:28:56;;;;;;;15.10;11.20;;;19.00;81.90;;;;;;5055912;28;20416;-40
2022/06/30 01:31:22;;;;;;;12.60;11.05;;;19.10;81.80;;;;;;5056441;28;20044;-38
2022/06/30 01:33:49;;;;;;;12.43;9.27;;;19.10;81.80;;;;;;5056183;28;20413;-38
2022/06/30 01:36:15;;;;;;;12.45;10.52;;;18.90;82.20;;;;;;5055791;28;20053;-37
2022/06/30 01:38:41;;;;;;;14.75;11.27;;;19.00;82.10;;;;;;5054547;28;20026;-38
2022/06/30 01:41:07;;;;;;;16.65;12.18;;;18.90;82.00;;;;;;5055751;28;20366;-37
2022/06/30 01:43:33;;;;;;;14.82;12.68;;;18.90;82.20;;;;;;5056458;28;20031;-38
2022/06/30 01:45:58;;;;;;;15.15;12.23;;;18.90;82.00;;;;;;5056279;28;20074;-41
2022/06/30 01:48:24;;;;;;;18.00;13.60;;;18.90;82.20;;;;;;5054683;28;20389;-37
2022/06/30 01:50:50;;;;;;;18.70;14.52;;;18.90;82.40;;;;;;5056062;28;20108;-37
2022/06/30 01:53:16;;;;;;;18.58;14.52;;;18.90;82.40;;;;;;5055630;28;20435;-38
2022/06/30 01:55:42;;;;;;;20.77;16.02;;;19.00;82.40;;;;;;5056437;28;20021;-40
2022/06/30 01:58:07;;;;;;;18.35;14.45;;;18.90;82.60;;;;;;5054323;28;20361;-37
2022/06/30 02:00:33;;;;;;;17.45;13.98;;;18.80;82.90;;;;;;5055969;28;20460;-37
2022/06/30 02:02:59;;;;;;;17.65;14.55;;;18.80;83.30;;;;;;5055654;28;20100;-37
2022/06/30 02:05:25;;;;;;;21.35;15.02;;;18.80;83.60;;;;;;5055954;28;20025;-38
2022/06/30 02:07:52;;;;;;;22.30;16.45;;;18.80;83.30;;;;;;5054376;28;20025;-37
2022/06/30 02:10:20;;;;;;;20.05;16.10;;;18.70;83.60;;;;;;5055380;28;20365;-37
2022/06/30 02:12:47;;;;;;;20.45;15.82;;;18.70;84.00;;;;;;5054061;28;20033;-37
2022/06/30 02:15:32;;;;;;;21.58;17.60;;;18.70;83.90;;;;;;5055434;28;20045;-38
2022/06/30 02:17:59;;;;;;;25.75;16.67;;;18.60;84.20;;;;;;5055724;28;20419;-38
2022/06/30 02:20:24;;;;;;;24.65;18.77;;;18.80;83.90;;;;;;5055768;28;20048;-38
2022/06/30 02:22:53;;;;;;;23.83;17.95;;;18.70;84.10;;;;;;5055078;28;20024;-38
2022/06/30 02:25:19;;;;;;;27.15;17.00;;;18.60;84.10;;;;;;5054737;28;20490;-38
2022/06/30 02:27:45;;;;;;;21.33;17.23;;;18.70;84.40;;;;;;5053698;28;20035;-38
2022/06/30 02:30:11;;;;;;;28.98;18.52;;;18.50;84.60;;;;;;5053716;28;20031;-38
2022/06/30 02:32:37;;;;;;;26.50;17.35;;;18.50;84.70;;;;;;5055146;28;20028;-38
2022/06/30 02:35:03;;;;;;;22.88;17.38;;;18.50;85.00;;;;;;5055174;28;20429;-38
2022/06/30 02:37:29;;;;;;;22.42;16.85;;;18.50;85.20;;;;;;5055008;28;20021;-38
2022/06/30 02:39:55;;;;;;;21.55;17.63;;;18.50;84.80;;;;;;5053431;28;20025;-38
2022/06/30 02:42:20;;;;;;;22.77;18.10;;;18.30;85.20;;;;;;5054811;28;20481;-36
2022/06/30 02:44:46;;;;;;;22.08;17.38;;;18.30;85.50;;;;;;5054623;28;20159;-37
2022/06/30 02:47:12;;;;;;;26.95;18.58;;;18.30;85.80;;;;;;5054732;28;20032;-44
2022/06/30 02:49:39;;;;;;;24.50;18.35;;;18.30;86.00;;;;;;5055403;28;20056;-37
2022/06/30 02:52:05;;;;;;;25.73;17.85;;;18.30;86.00;;;;;;5054695;28;20453;-37
2022/06/30 02:54:31;;;;;;;24.05;18.48;;;18.30;86.00;;;;;;5054395;28;20025;-38
2022/06/30 20:06:56;;;;;;;9.73;7.43;;;15.50;92.10;;;;;;5152594;27;20092;-51
2022/06/30 20:12:06;;;;;;;8.90;6.47;;;15.60;91.50;;;;;;5152972;27;20538;-49
2022/06/30 20:14:31;;;;;;;8.13;6.43;;;15.60;91.10;;;;;;5152479;27;20356;-48
2022/06/30 20:16:57;;;;;;;6.88;5.97;;;15.80;91.40;;;;;;5151933;27;20026;-48
2022/06/30 20:19:22;;;;;;;7.15;5.88;;;15.70;90.60;;;;;;5152233;27;20030;-49
2022/06/30 20:21:48;;;;;;;5.97;5.38;;;15.80;90.90;;;;;;5133265;27;20443;-50
2022/06/30 20:24:18;;;;;;;6.97;6.18;;;15.70;90.90;;;;;;5151980;27;20023;-50
2022/06/30 20:26:44;;;;;;;7.10;6.47;;;15.70;91.20;;;;;;5162637;27;20023;-37
2022/06/30 20:29:09;;;;;;;9.10;6.82;;;15.70;91.30;;;;;;5151958;27;20087;-36
2022/06/30 20:31:35;;;;;;;7.32;5.95;;;15.80;91.10;;;;;;5151812;27;20018;-37
2022/06/30 20:34:01;;;;;;;8.27;6.03;;;15.80;90.80;;;;;;5151956;27;20019;-37
2022/06/30 20:36:27;;;;;;;6.95;6.30;;;15.70;90.70;;;;;;5151583;27;20059;-37
2022/06/30 20:38:53;;;;;;;7.10;5.32;;;15.60;90.50;;;;;;5151626;27;20027;-37
2022/06/30 20:41:32;;;;;;;5.90;5.38;;;15.60;90.60;;;;;;5151809;27;20026;-36
2022/06/30 20:44:03;;;;;;;6.10;5.43;;;15.60;90.50;;;;;;5151869;27;20027;-37
2022/06/30 20:46:31;;;;;;;6.97;5.72;;;15.60;90.50;;;;;;5149988;27;20027;-37
2022/06/30 20:51:43;;;;;;;6.85;4.43;;;15.80;89.40;;;;;;5152014;27;20397;-38
2022/06/30 20:54:15;;;;;;;6.40;4.03;;;15.80;89.00;;;;;;5151671;27;20041;-37
2022/06/30 20:56:46;;;;;;;4.88;4.30;;;15.80;88.80;;;;;;5151634;27;20102;-36
2022/06/30 20:59:12;;;;;;;6.47;3.92;;;15.80;88.60;;;;;;5151145;27;20019;-37
2022/06/30 21:01:38;;;;;;;3.75;3.35;;;15.80;88.30;;;;;;5151817;27;20102;-38
2022/06/30 21:04:04;;;;;;;5.80;3.13;;;15.80;87.70;;;;;;5151204;27;20498;-38
2022/06/30 21:06:30;;;;;;;4.68;3.42;;;15.90;87.30;;;;;;5151495;27;20096;-38
2022/06/30 21:08:59;;;;;;;3.35;2.65;;;15.80;87.70;;;;;;5151327;27;20411;-38
2022/06/30 21:11:25;;;;;;;3.83;2.92;;;15.60;88.40;;;;;;5150360;27;20022;-39
2022/06/30 21:13:51;;;;;;;4.57;3.05;;;15.60;88.70;;;;;;5147398;27;20382;-37
2022/06/30 21:16:18;;;;;;;6.72;2.90;;;15.70;88.80;;;;;;5137571;27;20029;-38
2022/06/30 21:18:43;;;;;;;3.20;2.47;;;15.50;88.80;;;;;;5137924;27;20427;-39
2022/06/30 21:21:09;;;;;;;5.82;3.08;;;15.50;89.00;;;;;;5137482;27;20023;-37
2022/06/30 21:23:36;;;;;;;3.35;2.92;;;15.60;89.00;;;;;;5138097;27;20049;-37
2022/06/30 21:26:03;;;;;;;7.22;2.90;;;15.60;89.20;;;;;;5135956;27;20023;-37
2022/06/30 21:28:28;;;;;;;10.10;3.20;;;15.50;89.40;;;;;;5136225;27;20327;-37
2022/06/30 21:30:54;;;;;;;6.00;2.92;;;15.50;89.60;;;;;;5137319;27;20023;-37
2022/06/30 21:33:21;;;;;;;3.00;2.53;;;15.40;89.70;;;;;;5137256;27;20058;-38
2022/06/30 21:35:47;;;;;;;4.20;2.80;;;15.50;89.90;;;;;;5137387;27;20076;-37
2022/06/30 21:38:13;;;;;;;6.25;2.30;;;15.50;89.50;;;;;;5136980;27;20077;-38
2022/06/30 21:40:39;;;;;;;5.18;2.53;;;15.50;89.30;;;;;;5136693;27;20041;-38
2022/06/30 21:43:05;;;;;;;2.95;2.53;;;15.60;89.40;;;;;;5136506;27;20027;-37
2022/06/30 21:45:31;;;;;;;6.85;2.10;;;15.50;89.30;;;;;;5137057;27;20047;-37
2022/06/30 21:47:57;;;;;;;5.82;2.90;;;15.50;89.10;;;;;;5136924;27;20482;-38
2022/06/30 21:50:23;;;;;;;1.90;1.75;;;15.50;89.00;;;;;;5136812;27;20035;-38
2022/06/30 21:52:48;;;;;;;2.38;1.60;;;15.50;88.90;;;;;;5137340;27;20019;-38
2022/06/30 21:55:14;;;;;;;1.92;1.60;;;15.50;88.80;;;;;;5135990;27;20474;-45
2022/06/30 21:57:43;;;;;;;4.35;1.48;;;15.60;88.90;;;;;;5137049;27;20028;-37
2022/06/30 22:00:12;;;;;;;3.08;1.63;;;15.40;89.00;;;;;;5137294;27;20397;-38
2022/06/30 22:02:41;;;;;;;4.45;1.73;;;15.50;89.20;;;;;;5136118;27;20043;-37
2022/06/30 22:05:08;;;;;;;2.63;2.13;;;15.50;89.20;;;;;;5136204;27;20016;-37
2022/06/30 22:07:33;;;;;;;2.53;2.33;;;15.50;89.40;;;;;;5135703;27;20382;-38
2022/06/30 22:09:59;;;;;;;3.33;2.10;;;15.70;89.70;;;;;;5135820;27;20023;-37
2022/06/30 22:12:25;;;;;;;4.07;3.03;;;15.80;88.90;;;;;;5136059;27;20027;-38
2022/06/30 22:14:51;;;;;;;4.63;3.67;;;15.70;89.00;;;;;;5135125;27;20528;-38
2022/06/30 22:17:17;;;;;;;5.60;4.03;;;15.50;89.90;;;;;;5135993;27;20020;-36
2022/06/30 22:19:43;;;;;;;3.47;3.17;;;15.40;89.80;;;;;;5136137;27;20031;-37
2022/06/30 22:22:09;;;;;;;7.38;4.15;;;15.30;90.30;;;;;;5135970;27;20030;-36
2022/06/30 22:24:34;;;;;;;5.05;4.07;;;15.40;90.20;;;;;;5135726;27;20051;-36
2022/06/30 22:27:00;;;;;;;7.43;4.72;;;15.30;90.30;;;;;;5134674;27;20439;-38
2022/06/30 22:29:25;;;;;;;8.82;5.25;;;15.30;90.30;;;;;;5136011;27;20091;-37
2022/06/30 22:31:51;;;;;;;14.95;6.65;;;15.30;90.70;;;;;;5136669;27;20015;-38
2022/06/30 22:34:17;;;;;;;8.07;5.70;;;15.30;90.70;;;;;;5135873;27;20023;-37
2022/06/30 22:36:43;;;;;;;7.75;6.07;;;15.30;90.50;;;;;;5135730;27;20031;-37
2022/06/30 22:39:10;;;;;;;9.85;7.38;;;15.40;90.20;;;;;;5134427;27;20031;-37
2022/06/30 22:41:36;;;;;;;7.85;6.45;;;15.30;90.10;;;;;;5135228;27;20027;-37
2022/06/30 22:44:01;;;;;;;10.60;7.60;;;15.20;90.60;;;;;;5135235;27;20027;-37
2022/06/30 22:46:27;;;;;;;8.07;6.18;;;15.30;90.70;;;;;;5135468;27;20023;-37
2022/06/30 22:48:52;;;;;;;8.65;6.30;;;15.20;90.60;;;;;;5134328;27;20027;-37
2022/06/30 22:51:18;;;;;;;10.10;5.85;;;15.20;90.10;;;;;;5136341;27;20020;-37
2022/06/30 22:53:44;;;;;;;7.00;5.47;;;15.30;90.10;;;;;;5135208;27;20049;-37
2022/06/30 22:56:13;;;;;;;8.35;5.90;;;15.30;89.90;;;;;;5135479;27;20019;-37
2022/06/30 22:58:40;;;;;;;8.73;6.22;;;15.20;89.80;;;;;;5133721;27;20027;-37
2022/06/30 23:01:05;;;;;;;8.60;6.45;;;15.20;90.10;;;;;;5135102;27;20019;-36
2022/06/30 23:03:31;;;;;;;8.13;6.25;;;15.10;90.40;;;;;;5135007;27;20035;-37
2022/06/30 23:05:57;;;;;;;10.20;7.95;;;15.20;90.30;;;;;;5133773;27;20023;-38
2022/06/30 23:08:23;;;;;;;10.85;6.75;;;15.20;90.40;;;;;;5133339;27;20067;-37
2022/06/30 23:10:49;;;;;;;11.65;7.45;;;15.20;90.30;;;;;;5134570;27;20034;-37
2022/06/30 23:13:15;;;;;;;10.77;7.75;;;15.20;90.30;;;;;;5133297;27;20023;-37
2022/06/30 23:15:40;;;;;;;11.68;8.05;;;15.20;90.50;;;;;;5134606;27;20098;-38
2022/06/30 23:18:06;;;;;;;11.85;8.57;;;15.30;90.40;;;;;;5134428;27;20015;-38
2022/06/30 23:20:32;;;;;;;10.77;8.05;;;15.20;90.60;;;;;;5134705;27;20027;-38
2022/06/30 23:22:58;;;;;;;14.00;9.70;;;15.00;91.00;;;;;;5134638;27;20027;-37
2022/06/30 23:25:23;;;;;;;14.90;10.68;;;15.10;91.00;;;;;;5135363;27;20046;-39
2022/06/30 23:27:49;;;;;;;16.65;11.48;;;15.10;90.90;;;;;;5133408;27;20094;-38
2022/06/30 23:30:15;;;;;;;14.23;11.10;;;15.10;91.00;;;;;;5133397;27;20379;-38
2022/06/30 23:32:41;;;;;;;17.33;12.48;;;15.10;90.90;;;;;;5133565;27;20026;-36
2022/06/30 23:35:07;;;;;;;16.80;13.00;;;15.10;91.20;;;;;;5135249;27;20436;-37
2022/06/30 23:37:32;;;;;;;15.70;12.10;;;15.20;91.10;;;;;;5134416;27;20037;-37
2022/06/30 23:39:58;;;;;;;16.45;11.52;;;15.10;90.80;;;;;;5134735;27;20479;-36
2022/06/30 23:42:24;;;;;;;18.33;11.85;;;15.10;91.00;;;;;;5134802;27;20019;-39
2022/06/30 23:44:50;;;;;;;16.67;11.30;;;15.20;91.00;;;;;;5135318;27;20071;-46
2022/06/30 23:47:16;;;;;;;13.93;11.07;;;15.10;90.70;;;;;;5134531;27;20019;-37
2022/06/30 23:49:46;;;;;;;16.08;10.93;;;15.10;90.80;;;;;;5133816;27;20019;-37
2022/06/30 23:52:12;;;;;;;14.18;10.63;;;15.10;90.80;;;;;;5134776;27;20035;-38
2022/06/30 23:54:39;;;;;;;13.55;10.40;;;15.10;90.60;;;;;;5134796;27;20019;-36
2022/06/30 23:57:08;;;;;;;15.27;10.43;;;15.10;90.70;;;;;;5133307;27;20095;-37
2022/06/30 23:59:34;;;;;;;17.67;10.20;;;15.10;90.50;;;;;;5133053;27;20034;-37
